Adjuster:

Seasonal Box Office


INDEX BY QUARTER | INDEX BY YEAR | SEASON-TO-DATE

2014 - 2013 - 2012 - 2011 - 2010 - 2009 - 2008 - 2007 - 2006 - 2005 - 2004 - 2003 - 2002 - 2001 - 2000

Season-to-Date: Summer
(The first Friday in May through Labor Day Weekend)
Data shown for May 6–Jul. 23


#1–100 - #101–200 - #201–277
RowRankMovie Title (click to view)Studio
Gross / TheatersTotal Gross / % of TotalOpen
131The IslandDW$8,761,8393,122$35,818,91324.5%7/22/05
233Bad News BearsPar.$8,271,5783,183$32,868,34925.2%7/22/05
336Hustle and FlowParC$5,863,7201,013$22,202,80926.4%7/22/05
438The Devil's RejectsLions$5,241,3631,757$17,044,98130.8%7/22/05
5131ViruddhUTV$79,84837$327,61524.4%7/22/05
6144Last DaysPicH$62,62512$463,08013.5%7/22/05
7201NovemberSPC$15,7828$192,1868.2%7/22/05
82229 SongsTar.$9,7361$66,85314.6%7/22/05
9233The EdukatorsIFC$7,2902$175,4934.2%7/22/05
10261This Divided StateMino.$1,1951$4,25528.1%7/22/05
11271MonumentalFRun$6091$1,43042.6%7/22/05
12263Making GraceFRun$1,0791$1,49672.1%7/20/05
138Charlie and the Chocolate FactoryWB$105,487,5193,790$206,459,07651.1%7/15/05
1410Wedding CrashersNL$71,987,0002,925$209,255,92134.4%7/15/05
1584Happy EndingsLions$483,48961$1,315,70136.7%7/15/05
16183The WarriorMira.$26,1054$50,25751.9%7/15/05
17223First MorningIllm.$9,5641$87,26411.0%7/15/05
18227Memories of MurderPalm$8,4181$15,35754.8%7/15/05
19228The ReceptionStrand$8,0081$18,38943.5%7/15/05
20188On the OutsFader$23,7321$49,94047.5%7/13/05
21217Searching for the Wrong-Eyed JesusShad.$11,2762$79,91614.1%7/13/05
22260Return to the Land of WondersArab$1,2831$1,33895.9%7/13/05
237Fantastic FourFox$119,099,2443,619$154,696,08077.0%7/8/05
2423Dark WaterBV$22,530,8392,657$25,473,35288.4%7/8/05
2598MurderballThink$235,05526$1,531,15415.4%7/8/05
26116SarabandSPC$141,57912$645,63421.9%7/8/05
27119CronicasPalm$131,03713$300,32243.6%7/8/05
28122The Beautiful CountrySPC$118,67020$442,81326.8%7/8/05
29270Steve + SkyLife$6241$624100.0%7/8/05
3026ReboundFox$15,502,0722,464$16,809,01492.2%7/1/05
3185The Beat That My Heart SkippedWells$468,64433$1,023,42445.8%7/1/05
32164UndeadLions$41,19613$41,196100.0%7/1/05
33194The WorldZeit.$19,6551$64,12330.7%7/1/05
34234Twist of FaithAL$6,9662$8,12985.7%7/1/05
352War of the WorldsPar.$205,827,4433,910$234,280,35487.9%6/29/05
36229A Decent FactoryIcar.$7,9251$7,925100.0%6/29/05
3713BewitchedSony$59,318,6393,188$63,313,15993.7%6/24/05
3824George A. Romero's Land of the DeadUni.$20,220,9152,253$20,700,08297.7%6/24/05
3934March of the PenguinsWIP$7,731,147695$77,437,22310.0%6/24/05
4047RizeLions$3,336,391352$3,336,391100.0%6/24/05
4159PaheliEros$1,409,49968$1,409,499100.0%6/24/05
42104YesSPC$218,62726$396,76055.1%6/24/05
43127Lila SaysIDP$88,8856$121,36573.2%6/24/05
44174Elevator to the Gallows (Re-issue)Rialto$31,9581$263,40412.1%6/24/05
45180Tropical MaladyStrand$27,0792$46,75057.9%6/24/05
46198The Last MogulThink$16,4692$16,469100.0%6/24/05
47224Drivers WantedPill.$9,5161$25,18937.8%6/24/05
48239Tony TakitaniStrand$5,5041$129,7834.2%6/24/05
4912Herbie: Fully LoadedBV$59,701,4003,521$66,023,81690.4%6/22/05
5025The Perfect ManUni.$15,656,3552,090$16,535,00594.7%6/17/05
5156Me and You and Everyone We KnowIFC$1,818,000136$3,885,13446.8%6/17/05
5266My Summer of LoveFocus$917,12163$1,000,91591.6%6/17/05
5368HeightsSPC$875,05866$1,160,81775.4%6/17/05
54140The Talent Given UsVita.$65,6393$65,82799.7%6/17/05
55189Edvard Munch (Re-issue)Shad.$22,5812$43,53951.9%6/17/05
56211The Great WaterPict.$13,3452$17,25777.3%6/17/05
573Batman BeginsWB$189,825,8013,858$205,343,77492.4%6/15/05
585Mr. & Mrs. SmithFox$173,615,3213,451$186,336,27993.2%6/10/05
5917The Adventures of Sharkboy and Lavagirl in 3DDim.$38,038,0902,655$39,177,68497.1%6/10/05
6027The HoneymoonersPar.$12,707,0831,912$12,843,84998.9%6/10/05
6144Howl's Moving CastleBV$4,317,080202$4,711,09691.6%6/10/05
6245High TensionLions$3,681,0661,323$3,681,066100.0%6/10/05
6371ParineetaUTV$799,91350$802,75899.6%6/10/05
641245x2Think$106,5795$128,75282.8%6/10/05
65132The Keeper: The Legend of Omar KhayyamArv.$78,1663$225,86334.6%6/10/05
66157The Bridge of San Luis ReyFL$49,9816$49,981100.0%6/10/05
67167PureIndic.$36,7753$102,47135.9%6/10/05
68209Wild SideWells$13,6872$15,35589.1%6/10/05
69220Slutty SummerEmbr.$10,0961$21,51546.9%6/10/05
70242McLibelLibre$4,3373$4,337100.0%6/10/05
7111Cinderella ManUni.$59,744,1302,820$61,649,91196.9%6/3/05
7229Lords of DogtownSony$11,273,5171,865$11,273,517100.0%6/3/05
7378Apres VousParC$634,83142$830,29276.5%6/3/05
74110Caterina in the Big CityEmp.$182,86110$296,46461.7%6/3/05
75129Deep BlueMira.$82,0915$132,26162.1%6/3/05
76142Rock SchoolPicH$64,31032$64,310100.0%6/3/05
77213Milwaukee, MinnesotaTar.$12,0223$17,52868.6%6/3/05
7818The Sisterhood of the Traveling PantsWB$37,810,8582,583$39,053,06196.8%6/1/05
79186Or (My Treasure)Kino$24,6472$29,19484.4%6/1/05
804MadagascarDW$186,309,7824,142$193,595,52196.2%5/27/05
816The Longest YardPar.$155,260,6153,654$158,119,46098.2%5/27/05
8263Saving FaceSPC$1,033,91056$1,187,26687.1%5/27/05
8365Bunty Aur BabliYash$942,75651$942,756100.0%5/27/05
84154The Ninth DayKino$53,5384$72,88873.5%5/27/05
85179The Two of UsRialto$27,4021$56,55848.4%5/27/05
86196A League of Ordinary GentlemenMagn.$17,4384$18,80792.7%5/27/05
87199GenesisThink$16,4131$16,413100.0%5/27/05
88202SequinsNYer$15,5312$26,04259.6%5/27/05
89203Bomb the SystemPalm$15,5202$15,520100.0%5/27/05
90269Spooky House (Re-issue)Ent.H$6374$637100.0%5/27/05
9196Dominion: Prequel to the ExorcistWB$251,495110$251,495100.0%5/20/05
92184Sex, Politics & CocktailsReg.$26,0872$26,087100.0%5/20/05
93250Stolen ChildhoodsBal.$2,9961$2,996100.0%5/20/05
941Star Wars: Episode III - Revenge of the SithFox$375,550,9713,663$380,270,57798.8%5/19/05
959Monster-in-LawNL$81,891,7793,424$82,931,30198.7%5/13/05
9614Kicking and ScreamingUni.$52,331,2503,470$52,842,72499.0%5/13/05
9722UnleashedRog.$24,537,6211,962$24,537,621100.0%5/13/05
9837Mad Hot BallroomParC$5,810,342202$8,117,96171.6%5/13/05
9941MindhuntersDim.$4,480,7441,040$4,480,744100.0%5/13/05
10052Layer CakeSPC$2,307,459200$2,339,95798.6%5/13/05
Summary of 277 Movies on Chart:
Totals:$2,450,356,374----
Averages:$8,846,052----
#1–100 - #101–200 - #201–277



2014 - 2013 - 2012 - 2011 - 2010 - 2009 - 2008 - 2007 - 2006 - 2005 - 2004 - 2003 - 2002 - 2001 - 2000

Season-to-Date: Summer
(The first Friday in May through Labor Day Weekend)
Data shown for May 6–Jul. 23


Note: Quarter-to-Date data is displayed for CALENDAR GROSSES only, i.e., all movies playing during the above time period and their grosses (or estimated grosses). Click here for a full explanation of the various box office sections.